Bovey Tracey, United Kingdom
Current Conditions -  °F | °C
As of 11:50 PM on Tuesday 25 Nov 2014 (Local Time) from EGTE Reporting Station
Broken Clouds Broken Clouds  
Wind Chill:   Ceiling: 900
Heat Index:   Visibility: 6mi
Dew Point:   Wind: 7mph
Humidity: 93%   Direction: 10°N
Pressure: 29.97"   Gusts: NA
Location:  50.59°N, 3.68°W
Report Text: EGTE 252350Z 01006KT 9000 BKN009 06/05 Q1015
Loading
Personal Weather Stations






























Interactive Weather Map New forecast layout! Learn more

10-Day Weather Forecast

Advertisements
Track Severe Weather on mobile